createdAt,value
2018-11-14T00:00:50.408Z,24.20
2018-11-14T00:03:24.815Z,23.60
2018-11-14T00:05:59.767Z,24.70
2018-11-14T00:08:34.034Z,24.70
2018-11-14T00:11:08.397Z,24.70
2018-11-14T00:13:42.681Z,24.70
2018-11-14T00:16:17.102Z,24.60
2018-11-14T00:18:51.436Z,24.60
2018-11-14T00:21:25.754Z,25.00
2018-11-14T00:24:00.060Z,26.00
2018-11-14T00:26:34.380Z,26.50
2018-11-14T00:29:08.608Z,26.00
2018-11-14T00:31:42.880Z,26.80
2018-11-14T00:34:18.312Z,26.40
2018-11-14T00:36:52.586Z,26.50
2018-11-14T00:39:26.998Z,27.40
2018-11-14T00:42:01.339Z,27.70
2018-11-14T00:44:35.673Z,27.80
2018-11-14T00:47:10.048Z,27.90
2018-11-14T00:49:44.426Z,28.20
2018-11-14T00:52:18.837Z,28.20
2018-11-14T00:54:53.198Z,28.60
2018-11-14T00:57:27.538Z,28.70
2018-11-14T01:00:01.882Z,29.30
2018-11-14T01:02:38.097Z,29.80
2018-11-14T01:05:13.336Z,29.50
2018-11-14T01:07:47.500Z,29.80
2018-11-14T01:10:22.543Z,30.00
2018-11-14T01:12:57.471Z,30.10
2018-11-14T01:15:31.855Z,30.70
2018-11-14T01:18:06.505Z,30.50
2018-11-14T01:20:40.700Z,31.10
2018-11-14T01:23:14.886Z,31.60
2018-11-14T01:25:49.162Z,31.80
2018-11-14T01:28:23.423Z,31.80
2018-11-14T01:30:58.779Z,31.70
2018-11-14T01:33:33.052Z,31.50
2018-11-14T01:36:07.259Z,31.40
2018-11-14T01:38:41.593Z,31.20
2018-11-14T01:41:15.983Z,31.70
2018-11-14T01:43:50.276Z,31.70
2018-11-14T01:46:24.596Z,31.70
2018-11-14T01:48:58.945Z,31.70
2018-11-14T01:51:33.221Z,31.70
2018-11-14T01:54:07.543Z,31.70
2018-11-14T01:56:41.945Z,31.70
2018-11-14T01:59:16.255Z,31.70
2018-11-14T02:01:50.422Z,31.70
2018-11-14T02:04:24.886Z,31.80
2018-11-14T02:06:59.068Z,31.70
2018-11-14T02:09:33.408Z,31.60
2018-11-14T02:12:07.700Z,31.60
2018-11-14T02:14:42.482Z,32.10
2018-11-14T02:17:17.031Z,32.50
2018-11-14T02:19:51.253Z,32.80
2018-11-14T02:22:25.458Z,32.60
2018-11-14T02:24:59.836Z,33.20
2018-11-14T02:27:34.153Z,32.60
2018-11-14T02:30:13.494Z,32.20
2018-11-14T02:32:48.270Z,32.80
2018-11-14T02:35:22.686Z,32.90
2018-11-14T02:37:56.963Z,33.10
2018-11-14T02:40:31.323Z,33.40
2018-11-14T02:43:05.611Z,33.30
2018-11-14T02:45:39.859Z,33.70
2018-11-14T02:48:14.252Z,33.50
2018-11-14T02:50:53.089Z,33.70
2018-11-14T02:53:27.562Z,34.00
2018-11-14T02:56:07.015Z,34.00
2018-11-14T02:58:41.213Z,33.90
2018-11-14T03:01:15.488Z,33.90
2018-11-14T03:03:50.749Z,34.00
2018-11-14T03:06:25.128Z,33.90
2018-11-14T03:08:59.548Z,33.70
2018-11-14T03:11:33.763Z,33.90
2018-11-14T03:14:08.110Z,34.20
2018-11-14T03:16:43.047Z,34.20
2018-11-14T03:19:17.580Z,34.10
2018-11-14T03:21:52.092Z,34.20
2018-11-14T03:24:26.430Z,34.40
2018-11-14T03:27:01.002Z,34.40
2018-11-14T03:29:35.225Z,34.40
2018-11-14T03:32:09.572Z,34.40
2018-11-14T03:34:43.746Z,34.40
2018-11-14T03:37:18.102Z,34.40
2018-11-14T03:39:53.420Z,34.70
2018-11-14T03:42:27.830Z,34.60
2018-11-14T03:45:02.170Z,34.60
2018-11-14T03:47:36.601Z,34.50
2018-11-14T03:50:11.195Z,34.50
2018-11-14T03:52:45.821Z,34.50
2018-11-14T03:55:20.326Z,34.60
2018-11-14T03:57:54.801Z,34.60
2018-11-14T04:00:29.089Z,34.60
2018-11-14T04:03:03.308Z,34.70
2018-11-14T04:05:37.784Z,34.50
2018-11-14T04:08:12.005Z,34.60
2018-11-14T04:10:46.650Z,34.70
2018-11-14T04:13:21.015Z,34.90
2018-11-14T04:15:55.193Z,34.80
2018-11-14T04:18:29.579Z,34.90
2018-11-14T04:21:03.919Z,34.90
2018-11-14T04:23:42.198Z,35.00
2018-11-14T04:26:16.454Z,35.00
2018-11-14T04:28:50.880Z,34.90
2018-11-14T04:31:25.618Z,34.90
2018-11-14T04:33:59.948Z,35.00
2018-11-14T04:36:34.249Z,34.90
2018-11-14T04:39:09.488Z,35.10
2018-11-14T04:41:43.878Z,35.20
2018-11-14T04:44:18.282Z,35.20
2018-11-14T04:46:52.609Z,35.20
2018-11-14T04:49:27.154Z,35.10
2018-11-14T04:52:01.489Z,35.10
2018-11-14T04:54:35.709Z,35.20
2018-11-14T04:57:10.247Z,35.10
2018-11-14T04:59:44.749Z,35.20
2018-11-14T05:02:19.031Z,35.10
2018-11-14T05:04:53.264Z,35.20
2018-11-14T05:07:27.708Z,35.20
2018-11-14T05:10:02.179Z,35.20
2018-11-14T05:12:36.362Z,35.20
2018-11-14T05:15:12.265Z,35.30
2018-11-14T05:17:47.163Z,35.20
2018-11-14T05:20:22.426Z,35.20
2018-11-14T05:22:56.816Z,35.20
2018-11-14T05:25:31.304Z,35.30
2018-11-14T05:28:05.879Z,35.10
2018-11-14T05:30:40.277Z,35.10
2018-11-14T05:33:14.633Z,35.10
2018-11-14T05:35:48.902Z,34.90
2018-11-14T05:38:23.276Z,35.10
2018-11-14T05:40:57.472Z,35.10
2018-11-14T05:43:31.778Z,35.00
2018-11-14T05:46:06.228Z,35.00
2018-11-14T05:48:40.674Z,35.00
2018-11-14T05:51:15.032Z,35.00
2018-11-14T05:53:49.508Z,35.00
2018-11-14T05:56:23.682Z,35.00
2018-11-14T05:58:58.140Z,35.00
2018-11-14T06:01:32.477Z,35.10
2018-11-14T06:04:06.850Z,35.10
2018-11-14T06:06:41.698Z,35.20
2018-11-14T06:09:16.075Z,35.20
2018-11-14T06:11:50.385Z,35.30
2018-11-14T06:14:24.687Z,35.40
2018-11-14T06:16:59.381Z,35.40
2018-11-14T06:19:33.665Z,35.40
2018-11-14T06:22:08.216Z,35.50
2018-11-14T06:24:42.443Z,35.60
2018-11-14T06:27:16.886Z,35.60
2018-11-14T06:29:51.778Z,35.60
2018-11-14T06:32:26.470Z,35.60
2018-11-14T06:35:00.866Z,35.60
2018-11-14T06:37:35.831Z,35.70
2018-11-14T06:40:11.448Z,35.60
2018-11-14T06:42:45.944Z,35.50
2018-11-14T06:45:21.459Z,35.40
2018-11-14T06:47:57.170Z,35.20
2018-11-14T06:50:32.456Z,35.10
2018-11-14T06:53:07.397Z,34.80
2018-11-14T06:55:41.971Z,34.70
2018-11-14T06:58:16.632Z,34.50
2018-11-14T07:00:51.176Z,34.50
2018-11-14T07:03:25.786Z,34.40
2018-11-14T07:06:01.391Z,34.50
2018-11-14T07:08:35.865Z,34.40
2018-11-14T07:11:10.677Z,34.40
2018-11-14T07:13:45.030Z,34.60
2018-11-14T07:16:19.521Z,34.70
2018-11-14T07:18:53.837Z,34.70
2018-11-14T07:21:28.345Z,34.60
2018-11-14T07:24:02.789Z,34.60
2018-11-14T07:26:37.122Z,34.60
2018-11-14T07:29:11.541Z,34.60
2018-11-14T07:31:45.912Z,34.70
2018-11-14T07:34:20.392Z,34.80
2018-11-14T07:36:54.881Z,34.80
2018-11-14T07:39:29.216Z,34.80
2018-11-14T07:42:03.521Z,34.90
2018-11-14T07:44:37.956Z,35.20
2018-11-14T07:47:12.297Z,35.40
2018-11-14T07:49:46.900Z,35.50
2018-11-14T07:52:21.325Z,36.50
2018-11-14T07:54:56.139Z,35.70
2018-11-14T07:57:30.536Z,35.90
2018-11-14T08:00:08.577Z,36.10
2018-11-14T08:02:42.898Z,36.30
2018-11-14T08:05:17.525Z,36.50
2018-11-14T08:07:51.895Z,36.90
2018-11-14T08:10:26.256Z,37.20
2018-11-14T08:13:00.664Z,37.40
2018-11-14T08:15:35.005Z,37.50
2018-11-14T08:18:09.308Z,37.60
2018-11-14T08:20:43.957Z,37.80
2018-11-14T08:23:18.367Z,37.60
2018-11-14T08:25:52.805Z,37.50
2018-11-14T08:28:27.149Z,37.50
2018-11-14T08:31:01.533Z,37.50
2018-11-14T08:33:36.037Z,37.60
2018-11-14T08:36:10.357Z,37.30
2018-11-14T08:38:44.668Z,37.20
2018-11-14T08:41:19.846Z,37.00
2018-11-14T08:43:54.242Z,37.30
2018-11-14T08:46:28.554Z,36.70
2018-11-14T08:49:02.969Z,36.60
2018-11-14T08:51:38.010Z,36.00
2018-11-14T08:54:12.331Z,35.30
2018-11-14T08:56:47.218Z,35.00
2018-11-14T08:59:21.738Z,34.10
2018-11-14T09:01:56.191Z,32.70
2018-11-14T09:04:30.498Z,31.50
2018-11-14T09:07:05.116Z,29.90
2018-11-14T09:09:39.565Z,29.00
2018-11-14T09:12:14.099Z,28.10
2018-11-14T09:14:48.552Z,27.10
2018-11-14T09:17:22.774Z,24.60
2018-11-14T09:19:57.366Z,22.60
2018-11-14T09:22:32.585Z,21.20
2018-11-14T09:25:10.102Z,18.50
2018-11-14T09:27:45.013Z,17.40
2018-11-14T09:30:20.711Z,15.80
2018-11-14T09:32:55.428Z,14.40
2018-11-14T09:35:29.756Z,13.90
2018-11-14T09:38:04.037Z,12.10
2018-11-14T09:40:38.561Z,10.60
2018-11-14T09:43:13.070Z,9.80
2018-11-14T09:45:47.400Z,5.50
2018-11-14T09:48:22.057Z,3.90
2018-11-14T09:50:56.776Z,3.70
2018-11-14T09:53:31.263Z,4.40
2018-11-14T09:56:06.073Z,4.80
2018-11-14T09:58:40.708Z,3.60
2018-11-14T10:01:14.877Z,4.70
2018-11-14T10:03:49.240Z,5.70
2018-11-14T10:06:23.718Z,5.40
2018-11-14T10:08:57.954Z,5.40
2018-11-14T10:11:32.321Z,5.40
2018-11-14T10:14:07.212Z,3.60
2018-11-14T10:16:41.559Z,3.20
2018-11-14T10:19:16.001Z,2.90
2018-11-14T10:21:50.512Z,1.90
2018-11-14T10:24:24.976Z,1.90
2018-11-14T10:26:59.555Z,1.70
2018-11-14T10:29:34.013Z,1.30
2018-11-14T10:32:08.213Z,1.00
2018-11-14T10:34:42.690Z,1.00
2018-11-14T10:37:17.477Z,1.00
2018-11-14T10:39:52.031Z,1.00
2018-11-14T10:42:27.146Z,1.00
2018-11-14T10:45:01.566Z,1.00
2018-11-14T10:47:35.919Z,1.00
2018-11-14T10:50:14.005Z,1.00
2018-11-14T10:52:48.412Z,1.00
2018-11-14T10:55:23.464Z,1.00
2018-11-14T10:57:57.866Z,1.00
2018-11-14T11:00:37.549Z,1.00
2018-11-14T11:03:17.004Z,1.00
2018-11-14T11:05:56.943Z,1.00
2018-11-14T11:08:37.169Z,1.00
2018-11-14T11:11:16.924Z,1.00
2018-11-14T11:14:09.097Z,1.00
2018-11-14T11:16:49.448Z,1.00
2018-11-14T11:19:25.713Z,1.00
2018-11-14T11:22:00.340Z,1.00
2018-11-14T11:24:34.845Z,1.00
2018-11-14T11:27:09.168Z,1.00
2018-11-14T11:29:43.572Z,1.00
2018-11-14T11:32:18.225Z,1.00
2018-11-14T11:34:53.286Z,1.00
2018-11-14T11:37:27.984Z,1.00
2018-11-14T11:40:02.561Z,1.00
2018-11-14T11:42:36.852Z,1.00
2018-11-14T11:45:11.502Z,1.00
2018-11-14T11:47:46.120Z,1.00
2018-11-14T11:50:20.539Z,1.00
2018-11-14T11:52:55.366Z,1.00
2018-11-14T11:55:29.664Z,1.00
2018-11-14T11:58:04.217Z,1.00
2018-11-14T12:00:38.771Z,1.00
2018-11-14T12:03:13.177Z,1.00
2018-11-14T12:05:47.506Z,1.00
2018-11-14T12:08:21.901Z,1.00
2018-11-14T12:10:56.430Z,1.00
2018-11-14T12:13:30.904Z,1.00
2018-11-14T12:16:05.474Z,1.00
2018-11-14T12:18:39.913Z,1.00
2018-11-14T12:21:14.317Z,1.00
2018-11-14T12:23:48.773Z,1.00
2018-11-14T12:26:23.175Z,1.00
2018-11-14T12:28:57.497Z,1.00
2018-11-14T12:31:31.906Z,1.00
2018-11-14T12:34:06.430Z,1.00
2018-11-14T12:36:40.745Z,1.00
2018-11-14T12:39:15.086Z,1.00
2018-11-14T12:41:49.550Z,1.00
2018-11-14T12:44:24.114Z,1.00
2018-11-14T12:46:58.576Z,1.00
2018-11-14T12:49:32.906Z,1.00
2018-11-14T12:52:07.680Z,1.00
2018-11-14T12:54:42.101Z,1.00
2018-11-14T12:57:16.305Z,1.00
2018-11-14T12:59:50.796Z,1.00
2018-11-14T13:02:25.196Z,1.00
2018-11-14T13:04:59.529Z,1.00
2018-11-14T13:07:33.987Z,1.00
2018-11-14T13:10:09.685Z,1.00
2018-11-14T13:12:44.621Z,1.00
2018-11-14T13:15:19.890Z,1.00
2018-11-14T13:17:54.166Z,1.00
2018-11-14T13:20:28.449Z,1.00
2018-11-14T13:23:03.242Z,1.00
2018-11-14T13:25:37.854Z,1.00
2018-11-14T13:28:12.253Z,1.00
2018-11-14T13:30:46.827Z,1.00
2018-11-14T13:33:21.268Z,1.00
2018-11-14T13:35:56.068Z,1.00
2018-11-14T13:38:30.723Z,1.00
2018-11-14T13:41:05.422Z,1.00
2018-11-14T13:43:39.881Z,1.00
2018-11-14T13:46:14.325Z,1.00
2018-11-14T13:48:49.243Z,1.00
2018-11-14T13:51:23.605Z,1.00
2018-11-14T13:53:57.887Z,1.00
2018-11-14T13:56:32.429Z,1.00
2018-11-14T13:59:06.858Z,1.00
2018-11-14T14:01:41.036Z,1.00
2018-11-14T14:04:15.724Z,1.00
2018-11-14T14:06:50.146Z,1.00
2018-11-14T14:09:24.616Z,1.00
2018-11-14T14:11:58.838Z,1.00
2018-11-14T14:14:33.054Z,1.00
2018-11-14T14:17:07.302Z,1.00
2018-11-14T14:19:41.583Z,1.00
2018-11-14T14:22:16.066Z,1.00
2018-11-14T14:24:50.257Z,1.00
2018-11-14T14:27:24.502Z,1.00
2018-11-14T14:29:58.973Z,1.00
2018-11-14T14:32:33.370Z,1.00
2018-11-14T14:35:08.689Z,1.00
2018-11-14T14:37:43.060Z,1.00
2018-11-14T14:40:18.816Z,1.00
2018-11-14T14:42:52.997Z,1.00
2018-11-14T14:45:27.449Z,1.00
2018-11-14T14:48:01.800Z,1.00
2018-11-14T14:50:36.034Z,1.00
2018-11-14T14:53:10.516Z,1.00
2018-11-14T14:55:44.914Z,1.00
2018-11-14T14:58:19.114Z,1.00
2018-11-14T15:00:53.329Z,1.00
2018-11-14T15:03:27.630Z,1.00
2018-11-14T15:06:01.888Z,1.00
2018-11-14T15:08:36.299Z,1.00
2018-11-14T15:11:10.566Z,1.00
2018-11-14T15:13:45.632Z,1.00
2018-11-14T15:16:20.065Z,1.00
2018-11-14T15:18:54.372Z,1.00
2018-11-14T15:21:28.721Z,1.00
2018-11-14T15:24:09.735Z,1.00
2018-11-14T15:26:44.147Z,1.00
2018-11-14T15:29:18.666Z,1.00
2018-11-14T15:31:53.119Z,1.00
2018-11-14T15:34:27.439Z,1.00
2018-11-14T15:37:01.914Z,1.00
2018-11-14T15:39:36.283Z,1.00
2018-11-14T15:42:10.552Z,1.00
2018-11-14T15:44:45.445Z,1.00
2018-11-14T15:47:20.326Z,1.00
2018-11-14T15:49:54.706Z,1.00
2018-11-14T15:52:29.461Z,1.00
2018-11-14T15:55:05.067Z,1.00
2018-11-14T15:57:45.434Z,1.00
2018-11-14T16:00:23.465Z,1.00
2018-11-14T16:02:57.936Z,1.00
2018-11-14T16:05:33.164Z,1.00
2018-11-14T16:08:07.729Z,1.00
2018-11-14T16:10:42.172Z,1.00
2018-11-14T16:13:16.788Z,1.00
2018-11-14T16:15:51.551Z,1.00
2018-11-14T16:18:25.926Z,1.00
2018-11-14T16:21:00.737Z,1.00
2018-11-14T16:23:35.402Z,1.00
2018-11-14T16:26:10.037Z,1.00
2018-11-14T16:28:44.732Z,1.00
2018-11-14T16:31:39.727Z,1.00
2018-11-14T16:34:17.197Z,1.00
2018-11-14T16:36:51.744Z,1.00
2018-11-14T16:39:26.057Z,1.00
2018-11-14T16:42:00.483Z,1.00
2018-11-14T16:44:34.752Z,1.00
2018-11-14T16:47:09.129Z,1.00
2018-11-14T16:49:43.892Z,1.00
2018-11-14T16:52:18.259Z,1.00
2018-11-14T16:54:52.607Z,1.00
2018-11-14T16:57:27.243Z,1.00
2018-11-14T17:00:01.560Z,1.00
2018-11-14T17:02:35.773Z,1.00
2018-11-14T17:05:10.265Z,1.00
2018-11-14T17:07:44.682Z,1.00
2018-11-14T17:10:20.441Z,1.00
2018-11-14T17:12:56.613Z,1.00
2018-11-14T17:15:31.803Z,1.00
2018-11-14T17:18:06.190Z,1.00
2018-11-14T17:20:40.761Z,1.00
2018-11-14T17:23:15.282Z,1.00
2018-11-14T17:25:49.649Z,1.00
2018-11-14T17:28:24.243Z,1.00
2018-11-14T17:30:58.629Z,1.00
2018-11-14T17:33:33.646Z,1.00
2018-11-14T17:36:08.212Z,1.00
2018-11-14T17:38:42.623Z,1.00
2018-11-14T17:41:17.106Z,1.00
2018-11-14T17:43:51.695Z,1.00
2018-11-14T17:46:26.114Z,2.20
2018-11-14T17:49:02.750Z,3.10
2018-11-14T17:51:41.241Z,4.10
2018-11-14T17:54:16.859Z,4.60
2018-11-14T17:56:51.420Z,5.50
2018-11-14T17:59:32.573Z,6.50
2018-11-14T18:02:07.526Z,6.60
2018-11-14T18:04:42.855Z,6.70
2018-11-14T18:07:18.410Z,6.50
2018-11-14T18:09:55.054Z,6.60
2018-11-14T18:12:29.718Z,7.90
2018-11-14T18:17:51.316Z,8.90
2018-11-14T18:20:28.931Z,10.30
2018-11-14T18:23:04.545Z,10.70
2018-11-14T18:28:27.296Z,12.10
2018-11-14T18:31:02.137Z,12.00
2018-11-14T18:33:37.520Z,13.40
2018-11-14T18:36:13.646Z,13.30
2018-11-14T18:38:52.952Z,13.70
2018-11-14T18:41:28.150Z,14.50
2018-11-14T18:44:02.694Z,15.40
2018-11-14T18:46:38.138Z,15.70
2018-11-14T18:49:12.911Z,16.40
2018-11-14T18:51:49.471Z,16.50
2018-11-14T18:54:28.326Z,17.10
2018-11-14T18:57:02.857Z,17.20
2018-11-14T18:59:37.401Z,17.50
2018-11-14T19:02:13.437Z,18.20
2018-11-14T19:04:47.843Z,18.60
2018-11-14T19:07:22.511Z,18.50
2018-11-14T19:09:56.851Z,18.60
2018-11-14T19:12:31.478Z,19.60
2018-11-14T19:15:09.097Z,19.70
2018-11-14T19:17:43.640Z,19.90
2018-11-14T19:20:23.350Z,20.10
2018-11-14T19:22:58.730Z,19.70
2018-11-14T19:25:34.589Z,19.70
2018-11-14T19:28:09.737Z,19.60
2018-11-14T19:30:46.292Z,19.30
2018-11-14T19:33:21.119Z,19.40
2018-11-14T19:35:55.560Z,19.20
2018-11-14T19:38:30.324Z,19.40
2018-11-14T19:41:04.980Z,19.90
2018-11-14T19:43:39.351Z,20.30
2018-11-14T19:46:13.817Z,20.70
2018-11-14T19:48:49.435Z,19.90
2018-11-14T19:51:25.071Z,20.10
2018-11-14T19:53:59.753Z,20.30
2018-11-14T19:56:34.490Z,20.70
2018-11-14T19:59:09.018Z,20.60
2018-11-14T20:01:44.478Z,20.80
2018-11-14T20:04:28.306Z,21.30
2018-11-14T20:07:02.863Z,21.20
2018-11-14T20:09:37.292Z,21.60
2018-11-14T20:12:11.852Z,21.80
2018-11-14T20:14:46.593Z,22.30
2018-11-14T20:17:21.212Z,22.40
2018-11-14T20:20:02.618Z,22.60
2018-11-14T20:22:36.856Z,23.10
2018-11-14T20:25:11.244Z,23.10
2018-11-14T20:27:45.853Z,23.90
2018-11-14T20:30:22.494Z,23.50
2018-11-14T20:32:57.887Z,23.40
2018-11-14T20:35:32.375Z,23.00
2018-11-14T20:38:06.829Z,22.90
2018-11-14T20:40:42.495Z,22.60
2018-11-14T20:43:17.204Z,22.30
2018-11-14T20:45:51.609Z,21.50
2018-11-14T20:48:26.149Z,21.20
2018-11-14T20:51:00.629Z,20.60
2018-11-14T20:53:36.765Z,20.70
2018-11-14T20:56:11.059Z,20.60
2018-11-14T20:58:45.414Z,20.10
2018-11-14T21:01:19.803Z,20.40
2018-11-14T21:03:54.513Z,20.20
2018-11-14T21:06:29.556Z,20.20
2018-11-14T21:09:05.487Z,19.50
2018-11-14T21:11:40.283Z,19.40
2018-11-14T21:14:14.593Z,19.60
2018-11-14T21:16:48.986Z,19.30
2018-11-14T21:19:23.486Z,19.20
2018-11-14T21:21:58.106Z,19.20
2018-11-14T21:24:32.451Z,19.60
2018-11-14T21:27:06.805Z,20.00
2018-11-14T21:29:41.114Z,20.00
2018-11-14T21:32:15.492Z,20.10
2018-11-14T21:34:49.912Z,20.00
2018-11-14T21:37:24.252Z,20.40
2018-11-14T21:39:58.749Z,20.50
2018-11-14T21:42:33.053Z,21.40
2018-11-14T21:45:09.385Z,21.60
2018-11-14T21:47:49.413Z,21.60
2018-11-14T21:50:24.752Z,22.00
2018-11-14T21:52:59.185Z,22.60
2018-11-14T21:55:33.456Z,22.80
2018-11-14T21:58:07.864Z,22.80
2018-11-14T22:00:42.395Z,23.10
2018-11-14T22:03:16.647Z,23.00
2018-11-14T22:05:51.753Z,23.40
2018-11-14T22:08:26.611Z,23.70
2018-11-14T22:11:00.875Z,23.70
2018-11-14T22:13:35.916Z,23.70
2018-11-14T22:16:10.376Z,23.80
2018-11-14T22:18:44.767Z,24.30
2018-11-14T22:21:19.118Z,24.80
2018-11-14T22:23:53.453Z,24.90
2018-11-14T22:26:27.856Z,25.00
2018-11-14T22:29:02.211Z,25.30
2018-11-14T22:31:36.501Z,25.30
2018-11-14T22:34:10.695Z,25.20
2018-11-14T22:36:45.141Z,25.20
2018-11-14T22:39:19.359Z,25.10
2018-11-14T22:41:53.680Z,25.20
2018-11-14T22:44:28.107Z,25.10
2018-11-14T22:47:02.528Z,25.20
2018-11-14T22:49:36.960Z,25.20
2018-11-14T22:52:11.220Z,25.10
2018-11-14T22:54:45.617Z,25.30
2018-11-14T22:57:19.897Z,25.20
2018-11-14T22:59:54.293Z,24.90
2018-11-14T23:02:28.498Z,25.00
2018-11-14T23:05:02.908Z,25.40
2018-11-14T23:07:37.241Z,25.60
2018-11-14T23:10:11.487Z,25.40
2018-11-14T23:12:46.143Z,25.60
2018-11-14T23:15:21.150Z,25.70
2018-11-14T23:17:55.344Z,26.20
2018-11-14T23:20:29.651Z,25.60
2018-11-14T23:23:04.426Z,25.40
2018-11-14T23:25:38.869Z,25.50
2018-11-14T23:28:13.449Z,25.60
2018-11-14T23:30:48.475Z,25.40
2018-11-14T23:33:22.976Z,25.80
2018-11-14T23:35:57.381Z,25.30
2018-11-14T23:38:32.034Z,25.60
2018-11-14T23:41:06.704Z,26.40
2018-11-14T23:43:41.072Z,26.90
2018-11-14T23:46:16.400Z,26.70
2018-11-14T23:48:50.945Z,26.70
2018-11-14T23:51:25.442Z,27.10
2018-11-14T23:54:00.364Z,27.30
2018-11-14T23:56:35.327Z,28.00
2018-11-14T23:59:09.968Z,28.30
